Bryant, Wisconsin
Current Conditions -  °F | °C
As of 7:15 AM on Thursday 27 Nov 2014 (Local Time) from KAIG Reporting Station
Clear Clear  
Wind Chill: -22°   Ceiling: Unl
Heat Index: -16°   Visibility: 10mi
Dew Point: -17°   Wind: 7mph
Humidity: 88%   Direction: 340°NNW
Pressure: 30.27"   Gusts: NA
Location:  45.21°N, 89.02°W
Report Text: KAIG 271315Z AUTO 34006KT 10SM CLR M15/M17 A3027 RMK AO2 T11551171
Loading
Personal Weather Stations






























Interactive Weather Map New forecast layout! Learn more

10-Day Weather Forecast

Advertisements
Track Severe Weather on mobile